sensor_id;sensor_type;location;lat;lon;timestamp;P1;durP1;ratioP1;P2;durP2;ratioP2
54193;SDS011;40102;50.906;6.972;2023-05-07T00:01:38;2.35;;;1.80;;
54193;SDS011;40102;50.906;6.972;2023-05-07T00:04:04;1.98;;;1.60;;
54193;SDS011;40102;50.906;6.972;2023-05-07T00:06:29;2.35;;;1.88;;
54193;SDS011;40102;50.906;6.972;2023-05-07T00:08:56;2.28;;;1.63;;
54193;SDS011;40102;50.906;6.972;2023-05-07T00:11:21;2.05;;;1.85;;
54193;SDS011;40102;50.906;6.972;2023-05-07T00:13:47;2.55;;;1.83;;
54193;SDS011;40102;50.906;6.972;2023-05-07T00:16:13;2.38;;;2.03;;
54193;SDS011;40102;50.906;6.972;2023-05-07T00:18:38;2.45;;;1.90;;
54193;SDS011;40102;50.906;6.972;2023-05-07T00:21:04;3.80;;;1.95;;
54193;SDS011;40102;50.906;6.972;2023-05-07T00:23:29;2.78;;;2.00;;
54193;SDS011;40102;50.906;6.972;2023-05-07T00:25:54;2.90;;;2.10;;
54193;SDS011;40102;50.906;6.972;2023-05-07T00:28:20;2.13;;;1.70;;
54193;SDS011;40102;50.906;6.972;2023-05-07T00:30:46;3.17;;;1.80;;
54193;SDS011;40102;50.906;6.972;2023-05-07T00:33:11;2.65;;;1.98;;
54193;SDS011;40102;50.906;6.972;2023-05-07T00:35:37;2.10;;;1.75;;
54193;SDS011;40102;50.906;6.972;2023-05-07T00:38:02;2.70;;;1.67;;
54193;SDS011;40102;50.906;6.972;2023-05-07T00:40:28;1.88;;;1.70;;
54193;SDS011;40102;50.906;6.972;2023-05-07T00:42:53;2.42;;;1.70;;
54193;SDS011;40102;50.906;6.972;2023-05-07T00:45:21;2.22;;;1.50;;
54193;SDS011;40102;50.906;6.972;2023-05-07T00:47:50;4.10;;;1.77;;
54193;SDS011;40102;50.906;6.972;2023-05-07T00:50:16;3.35;;;2.40;;
54193;SDS011;40102;50.906;6.972;2023-05-07T00:52:42;5.78;;;2.92;;
54193;SDS011;40102;50.906;6.972;2023-05-07T00:55:07;5.68;;;3.65;;
54193;SDS011;40102;50.906;6.972;2023-05-07T00:57:36;4.85;;;3.20;;
54193;SDS011;40102;50.906;6.972;2023-05-07T01:00:03;6.13;;;3.30;;
54193;SDS011;40102;50.906;6.972;2023-05-07T01:02:29;3.20;;;2.90;;
54193;SDS011;40102;50.906;6.972;2023-05-07T01:04:55;5.80;;;3.17;;
54193;SDS011;40102;50.906;6.972;2023-05-07T01:07:21;6.63;;;2.97;;
54193;SDS011;40102;50.906;6.972;2023-05-07T01:09:48;3.10;;;2.80;;
54193;SDS011;40102;50.906;6.972;2023-05-07T01:12:13;4.30;;;3.25;;
54193;SDS011;40102;50.906;6.972;2023-05-07T01:14:38;5.18;;;2.80;;
54193;SDS011;40102;50.906;6.972;2023-05-07T01:17:04;4.93;;;2.95;;
54193;SDS011;40102;50.906;6.972;2023-05-07T01:19:29;3.65;;;2.70;;
54193;SDS011;40102;50.906;6.972;2023-05-07T01:21:55;3.05;;;2.50;;
54193;SDS011;40102;50.906;6.972;2023-05-07T01:24:29;4.22;;;2.28;;
54193;SDS011;40102;50.906;6.972;2023-05-07T01:26:56;3.00;;;2.50;;
54193;SDS011;40102;50.906;6.972;2023-05-07T01:29:21;3.00;;;2.30;;
54193;SDS011;40102;50.906;6.972;2023-05-07T01:31:46;3.17;;;2.42;;
54193;SDS011;40102;50.906;6.972;2023-05-07T01:34:13;2.40;;;2.00;;
54193;SDS011;40102;50.906;6.972;2023-05-07T01:36:40;2.58;;;2.00;;
54193;SDS011;40102;50.906;6.972;2023-05-07T01:39:07;2.55;;;1.80;;
54193;SDS011;40102;50.906;6.972;2023-05-07T01:41:34;2.72;;;1.67;;
54193;SDS011;40102;50.906;6.972;2023-05-07T01:44:00;2.78;;;1.90;;
54193;SDS011;40102;50.906;6.972;2023-05-07T01:46:27;3.10;;;1.90;;
54193;SDS011;40102;50.906;6.972;2023-05-07T01:48:55;2.65;;;2.00;;
54193;SDS011;40102;50.906;6.972;2023-05-07T01:51:21;2.63;;;2.05;;
54193;SDS011;40102;50.906;6.972;2023-05-07T01:53:47;3.42;;;2.40;;
54193;SDS011;40102;50.906;6.972;2023-05-07T01:56:15;2.88;;;2.58;;
54193;SDS011;40102;50.906;6.972;2023-05-07T01:58:41;2.75;;;2.35;;
54193;SDS011;40102;50.906;6.972;2023-05-07T02:01:07;3.22;;;2.30;;
54193;SDS011;40102;50.906;6.972;2023-05-07T02:03:32;2.58;;;2.00;;
54193;SDS011;40102;50.906;6.972;2023-05-07T02:05:57;2.17;;;1.98;;
54193;SDS011;40102;50.906;6.972;2023-05-07T02:08:23;2.00;;;1.80;;
54193;SDS011;40102;50.906;6.972;2023-05-07T02:10:48;1.92;;;1.83;;
54193;SDS011;40102;50.906;6.972;2023-05-07T02:13:16;2.70;;;1.80;;
54193;SDS011;40102;50.906;6.972;2023-05-07T02:15:41;3.25;;;1.80;;
54193;SDS011;40102;50.906;6.972;2023-05-07T02:18:08;2.10;;;1.75;;
54193;SDS011;40102;50.906;6.972;2023-05-07T02:20:34;2.00;;;1.50;;
54193;SDS011;40102;50.906;6.972;2023-05-07T02:23:00;2.88;;;2.00;;
54193;SDS011;40102;50.906;6.972;2023-05-07T02:25:25;2.92;;;2.20;;
54193;SDS011;40102;50.906;6.972;2023-05-07T02:27:50;3.47;;;2.20;;
54193;SDS011;40102;50.906;6.972;2023-05-07T02:30:16;2.72;;;1.98;;
54193;SDS011;40102;50.906;6.972;2023-05-07T02:32:41;3.00;;;2.13;;
54193;SDS011;40102;50.906;6.972;2023-05-07T02:35:06;2.60;;;1.67;;
54193;SDS011;40102;50.906;6.972;2023-05-07T02:37:32;2.17;;;1.75;;
54193;SDS011;40102;50.906;6.972;2023-05-07T02:39:57;5.03;;;2.60;;
54193;SDS011;40102;50.906;6.972;2023-05-07T02:42:23;2.13;;;1.70;;
54193;SDS011;40102;50.906;6.972;2023-05-07T02:44:48;2.50;;;1.85;;
54193;SDS011;40102;50.906;6.972;2023-05-07T02:47:14;2.00;;;1.50;;
54193;SDS011;40102;50.906;6.972;2023-05-07T02:49:40;2.10;;;1.70;;
54193;SDS011;40102;50.906;6.972;2023-05-07T02:52:05;4.35;;;1.88;;
54193;SDS011;40102;50.906;6.972;2023-05-07T02:54:31;2.00;;;1.45;;
54193;SDS011;40102;50.906;6.972;2023-05-07T02:56:56;2.40;;;1.50;;
54193;SDS011;40102;50.906;6.972;2023-05-07T02:59:22;2.10;;;1.65;;
54193;SDS011;40102;50.906;6.972;2023-05-07T03:01:48;1.92;;;1.65;;
54193;SDS011;40102;50.906;6.972;2023-05-07T03:04:15;2.30;;;1.85;;
54193;SDS011;40102;50.906;6.972;2023-05-07T03:06:40;1.65;;;1.45;;
54193;SDS011;40102;50.906;6.972;2023-05-07T03:09:05;2.08;;;1.27;;
54193;SDS011;40102;50.906;6.972;2023-05-07T03:11:32;1.58;;;1.40;;
54193;SDS011;40102;50.906;6.972;2023-05-07T03:13:57;2.03;;;1.63;;
54193;SDS011;40102;50.906;6.972;2023-05-07T03:16:23;2.25;;;1.48;;
54193;SDS011;40102;50.906;6.972;2023-05-07T03:18:48;2.40;;;1.80;;
54193;SDS011;40102;50.906;6.972;2023-05-07T03:21:13;1.73;;;1.55;;
54193;SDS011;40102;50.906;6.972;2023-05-07T03:23:39;2.33;;;2.00;;
54193;SDS011;40102;50.906;6.972;2023-05-07T03:26:04;2.53;;;1.60;;
54193;SDS011;40102;50.906;6.972;2023-05-07T03:28:29;2.00;;;1.60;;
54193;SDS011;40102;50.906;6.972;2023-05-07T03:30:55;2.30;;;1.55;;
54193;SDS011;40102;50.906;6.972;2023-05-07T03:33:20;2.28;;;1.60;;
54193;SDS011;40102;50.906;6.972;2023-05-07T03:35:46;2.65;;;1.40;;
54193;SDS011;40102;50.906;6.972;2023-05-07T03:38:11;1.70;;;1.60;;
54193;SDS011;40102;50.906;6.972;2023-05-07T03:40:36;2.15;;;1.50;;
54193;SDS011;40102;50.906;6.972;2023-05-07T03:43:01;1.50;;;1.40;;
54193;SDS011;40102;50.906;6.972;2023-05-07T03:45:27;1.83;;;1.63;;
54193;SDS011;40102;50.906;6.972;2023-05-07T03:47:52;1.88;;;1.67;;
54193;SDS011;40102;50.906;6.972;2023-05-07T03:50:19;1.95;;;1.75;;
54193;SDS011;40102;50.906;6.972;2023-05-07T03:52:44;1.90;;;1.55;;
54193;SDS011;40102;50.906;6.972;2023-05-07T03:55:10;1.90;;;1.58;;
54193;SDS011;40102;50.906;6.972;2023-05-07T03:57:36;1.88;;;1.50;;
54193;SDS011;40102;50.906;6.972;2023-05-07T04:00:01;2.85;;;1.70;;
54193;SDS011;40102;50.906;6.972;2023-05-07T04:02:28;1.95;;;1.52;;
54193;SDS011;40102;50.906;6.972;2023-05-07T04:04:54;1.75;;;1.50;;
54193;SDS011;40102;50.906;6.972;2023-05-07T04:07:19;2.20;;;1.45;;
54193;SDS011;40102;50.906;6.972;2023-05-07T04:09:44;1.95;;;1.52;;
54193;SDS011;40102;50.906;6.972;2023-05-07T04:12:10;1.45;;;1.30;;
54193;SDS011;40102;50.906;6.972;2023-05-07T04:14:35;1.50;;;1.30;;
54193;SDS011;40102;50.906;6.972;2023-05-07T04:17:00;1.58;;;1.33;;
54193;SDS011;40102;50.906;6.972;2023-05-07T04:19:26;2.35;;;1.77;;
54193;SDS011;40102;50.906;6.972;2023-05-07T04:21:51;1.83;;;1.42;;
54193;SDS011;40102;50.906;6.972;2023-05-07T04:24:16;2.05;;;1.60;;
54193;SDS011;40102;50.906;6.972;2023-05-07T04:26:42;1.70;;;1.60;;
54193;SDS011;40102;50.906;6.972;2023-05-07T04:29:07;2.55;;;1.60;;
54193;SDS011;40102;50.906;6.972;2023-05-07T04:31:32;1.85;;;1.48;;
54193;SDS011;40102;50.906;6.972;2023-05-07T04:33:58;1.80;;;1.50;;
54193;SDS011;40102;50.906;6.972;2023-05-07T04:36:23;1.75;;;1.30;;
54193;SDS011;40102;50.906;6.972;2023-05-07T04:38:52;1.52;;;1.33;;
54193;SDS011;40102;50.906;6.972;2023-05-07T04:41:18;2.00;;;1.42;;
54193;SDS011;40102;50.906;6.972;2023-05-07T04:43:43;1.40;;;1.30;;
54193;SDS011;40102;50.906;6.972;2023-05-07T04:46:08;3.53;;;1.60;;
54193;SDS011;40102;50.906;6.972;2023-05-07T04:48:33;1.92;;;1.50;;
54193;SDS011;40102;50.906;6.972;2023-05-07T04:50:59;1.90;;;1.20;;
54193;SDS011;40102;50.906;6.972;2023-05-07T04:53:24;1.98;;;1.35;;
54193;SDS011;40102;50.906;6.972;2023-05-07T04:55:54;2.10;;;1.50;;
54193;SDS011;40102;50.906;6.972;2023-05-07T04:58:21;2.53;;;2.03;;
54193;SDS011;40102;50.906;6.972;2023-05-07T05:00:47;2.13;;;1.60;;
54193;SDS011;40102;50.906;6.972;2023-05-07T05:03:12;2.28;;;1.75;;
54193;SDS011;40102;50.906;6.972;2023-05-07T05:05:38;3.13;;;1.65;;
54193;SDS011;40102;50.906;6.972;2023-05-07T05:08:03;1.60;;;1.40;;
54193;SDS011;40102;50.906;6.972;2023-05-07T05:10:28;2.40;;;1.80;;
54193;SDS011;40102;50.906;6.972;2023-05-07T05:12:54;3.00;;;1.70;;
54193;SDS011;40102;50.906;6.972;2023-05-07T05:15:19;1.90;;;1.45;;
54193;SDS011;40102;50.906;6.972;2023-05-07T05:17:45;1.50;;;1.40;;
54193;SDS011;40102;50.906;6.972;2023-05-07T05:20:10;2.80;;;1.50;;
54193;SDS011;40102;50.906;6.972;2023-05-07T05:22:36;2.67;;;1.30;;
54193;SDS011;40102;50.906;6.972;2023-05-07T05:25:02;1.50;;;1.40;;
54193;SDS011;40102;50.906;6.972;2023-05-07T05:27:28;2.20;;;1.40;;
54193;SDS011;40102;50.906;6.972;2023-05-07T05:29:53;1.77;;;1.35;;
54193;SDS011;40102;50.906;6.972;2023-05-07T05:32:19;2.20;;;1.63;;
54193;SDS011;40102;50.906;6.972;2023-05-07T05:34:44;1.65;;;1.55;;
54193;SDS011;40102;50.906;6.972;2023-05-07T05:37:10;2.70;;;1.42;;
54193;SDS011;40102;50.906;6.972;2023-05-07T05:39:35;2.42;;;1.40;;
54193;SDS011;40102;50.906;6.972;2023-05-07T05:42:01;1.60;;;1.42;;
54193;SDS011;40102;50.906;6.972;2023-05-07T05:44:26;2.58;;;1.30;;
54193;SDS011;40102;50.906;6.972;2023-05-07T05:46:51;2.85;;;1.48;;
54193;SDS011;40102;50.906;6.972;2023-05-07T05:49:20;1.48;;;1.30;;
54193;SDS011;40102;50.906;6.972;2023-05-07T05:51:45;1.67;;;1.30;;
54193;SDS011;40102;50.906;6.972;2023-05-07T05:54:10;3.35;;;1.27;;
54193;SDS011;40102;50.906;6.972;2023-05-07T05:56:36;1.95;;;1.42;;
54193;SDS011;40102;50.906;6.972;2023-05-07T05:59:02;2.38;;;1.42;;
54193;SDS011;40102;50.906;6.972;2023-05-07T06:01:27;1.88;;;1.25;;
54193;SDS011;40102;50.906;6.972;2023-05-07T06:03:52;1.40;;;1.27;;
54193;SDS011;40102;50.906;6.972;2023-05-07T06:06:18;2.97;;;1.40;;
54193;SDS011;40102;50.906;6.972;2023-05-07T06:08:43;2.47;;;1.50;;
54193;SDS011;40102;50.906;6.972;2023-05-07T06:11:08;2.95;;;1.30;;
54193;SDS011;40102;50.906;6.972;2023-05-07T06:13:34;1.30;;;1.20;;
54193;SDS011;40102;50.906;6.972;2023-05-07T06:15:59;1.67;;;1.27;;
54193;SDS011;40102;50.906;6.972;2023-05-07T06:18:25;1.67;;;1.30;;
54193;SDS011;40102;50.906;6.972;2023-05-07T06:20:51;1.75;;;1.40;;
54193;SDS011;40102;50.906;6.972;2023-05-07T06:23:17;1.80;;;1.40;;
54193;SDS011;40102;50.906;6.972;2023-05-07T06:25:42;2.25;;;1.50;;
54193;SDS011;40102;50.906;6.972;2023-05-07T06:28:10;1.65;;;1.40;;
54193;SDS011;40102;50.906;6.972;2023-05-07T06:30:36;1.77;;;1.38;;
54193;SDS011;40102;50.906;6.972;2023-05-07T06:33:01;1.65;;;1.40;;
54193;SDS011;40102;50.906;6.972;2023-05-07T06:35:27;1.58;;;1.17;;
54193;SDS011;40102;50.906;6.972;2023-05-07T06:37:52;1.73;;;1.30;;
54193;SDS011;40102;50.906;6.972;2023-05-07T06:40:17;4.47;;;1.52;;
54193;SDS011;40102;50.906;6.972;2023-05-07T06:42:42;2.60;;;1.60;;
54193;SDS011;40102;50.906;6.972;2023-05-07T06:45:08;2.65;;;1.60;;
54193;SDS011;40102;50.906;6.972;2023-05-07T06:47:34;1.67;;;1.40;;
54193;SDS011;40102;50.906;6.972;2023-05-07T06:49:59;3.20;;;1.60;;
54193;SDS011;40102;50.906;6.972;2023-05-07T06:52:25;3.15;;;1.67;;
54193;SDS011;40102;50.906;6.972;2023-05-07T06:54:51;2.80;;;1.60;;
54193;SDS011;40102;50.906;6.972;2023-05-07T06:57:16;2.83;;;1.73;;
54193;SDS011;40102;50.906;6.972;2023-05-07T06:59:41;4.30;;;1.75;;
54193;SDS011;40102;50.906;6.972;2023-05-07T07:02:06;2.15;;;1.70;;
54193;SDS011;40102;50.906;6.972;2023-05-07T07:04:33;3.75;;;1.77;;
54193;SDS011;40102;50.906;6.972;2023-05-07T07:06:58;4.72;;;2.03;;
54193;SDS011;40102;50.906;6.972;2023-05-07T07:09:24;1.90;;;1.70;;
54193;SDS011;40102;50.906;6.972;2023-05-07T07:11:49;3.20;;;1.80;;
54193;SDS011;40102;50.906;6.972;2023-05-07T07:14:14;1.92;;;1.50;;
54193;SDS011;40102;50.906;6.972;2023-05-07T07:16:40;2.13;;;1.48;;
54193;SDS011;40102;50.906;6.972;2023-05-07T07:19:05;2.28;;;1.67;;
54193;SDS011;40102;50.906;6.972;2023-05-07T07:21:31;2.38;;;1.92;;
54193;SDS011;40102;50.906;6.972;2023-05-07T07:23:56;2.22;;;1.60;;
54193;SDS011;40102;50.906;6.972;2023-05-07T07:26:22;2.35;;;1.45;;
54193;SDS011;40102;50.906;6.972;2023-05-07T07:28:47;2.25;;;1.75;;
54193;SDS011;40102;50.906;6.972;2023-05-07T07:31:13;2.35;;;1.70;;
54193;SDS011;40102;50.906;6.972;2023-05-07T07:33:38;3.78;;;1.88;;
54193;SDS011;40102;50.906;6.972;2023-05-07T07:36:05;2.25;;;1.70;;
54193;SDS011;40102;50.906;6.972;2023-05-07T07:38:31;2.72;;;1.70;;
54193;SDS011;40102;50.906;6.972;2023-05-07T07:40:56;3.30;;;1.45;;
54193;SDS011;40102;50.906;6.972;2023-05-07T07:43:22;1.98;;;1.40;;
54193;SDS011;40102;50.906;6.972;2023-05-07T07:45:47;2.28;;;1.60;;
54193;SDS011;40102;50.906;6.972;2023-05-07T07:48:12;2.47;;;1.55;;
54193;SDS011;40102;50.906;6.972;2023-05-07T07:50:38;2.53;;;1.75;;
54193;SDS011;40102;50.906;6.972;2023-05-07T07:53:03;2.42;;;1.83;;
54193;SDS011;40102;50.906;6.972;2023-05-07T07:55:28;2.65;;;1.75;;
54193;SDS011;40102;50.906;6.972;2023-05-07T07:57:56;3.28;;;1.60;;
54193;SDS011;40102;50.906;6.972;2023-05-07T08:00:21;1.98;;;1.60;;
54193;SDS011;40102;50.906;6.972;2023-05-07T08:02:46;2.20;;;1.38;;
54193;SDS011;40102;50.906;6.972;2023-05-07T08:05:12;1.83;;;1.48;;
54193;SDS011;40102;50.906;6.972;2023-05-07T08:07:37;1.42;;;1.20;;
54193;SDS011;40102;50.906;6.972;2023-05-07T08:10:02;1.98;;;1.40;;
54193;SDS011;40102;50.906;6.972;2023-05-07T08:12:28;1.60;;;1.40;;
54193;SDS011;40102;50.906;6.972;2023-05-07T08:14:53;2.30;;;1.55;;
54193;SDS011;40102;50.906;6.972;2023-05-07T08:17:20;1.63;;;1.42;;
54193;SDS011;40102;50.906;6.972;2023-05-07T08:19:47;2.58;;;1.52;;
54193;SDS011;40102;50.906;6.972;2023-05-07T08:22:12;1.65;;;1.20;;
54193;SDS011;40102;50.906;6.972;2023-05-07T08:24:38;1.50;;;1.38;;
54193;SDS011;40102;50.906;6.972;2023-05-07T08:27:03;2.10;;;1.50;;
54193;SDS011;40102;50.906;6.972;2023-05-07T08:29:28;2.28;;;1.30;;
54193;SDS011;40102;50.906;6.972;2023-05-07T08:31:54;1.50;;;1.30;;
54193;SDS011;40102;50.906;6.972;2023-05-07T08:34:19;2.05;;;1.48;;
54193;SDS011;40102;50.906;6.972;2023-05-07T08:36:44;1.70;;;1.30;;
54193;SDS011;40102;50.906;6.972;2023-05-07T08:39:13;1.55;;;1.45;;
54193;SDS011;40102;50.906;6.972;2023-05-07T08:41:38;1.73;;;1.30;;
54193;SDS011;40102;50.906;6.972;2023-05-07T08:44:05;3.15;;;1.48;;
54193;SDS011;40102;50.906;6.972;2023-05-07T08:46:36;2.67;;;1.77;;
54193;SDS011;40102;50.906;6.972;2023-05-07T08:49:02;2.75;;;1.75;;
54193;SDS011;40102;50.906;6.972;2023-05-07T08:51:27;1.83;;;1.40;;
54193;SDS011;40102;50.906;6.972;2023-05-07T08:53:53;2.30;;;1.60;;
54193;SDS011;40102;50.906;6.972;2023-05-07T08:56:18;1.73;;;1.45;;
54193;SDS011;40102;50.906;6.972;2023-05-07T08:58:45;2.20;;;1.40;;
54193;SDS011;40102;50.906;6.972;2023-05-07T09:01:14;10.30;;;1.90;;
54193;SDS011;40102;50.906;6.972;2023-05-07T09:03:41;2.63;;;1.60;;
54193;SDS011;40102;50.906;6.972;2023-05-07T09:06:10;2.75;;;1.73;;
54193;SDS011;40102;50.906;6.972;2023-05-07T09:08:36;3.05;;;1.70;;
54193;SDS011;40102;50.906;6.972;2023-05-07T09:11:02;2.28;;;1.58;;
54193;SDS011;40102;50.906;6.972;2023-05-07T09:13:28;3.22;;;1.52;;
54193;SDS011;40102;50.906;6.972;2023-05-07T09:15:54;3.30;;;1.60;;
54193;SDS011;40102;50.906;6.972;2023-05-07T09:18:20;3.20;;;1.55;;
54193;SDS011;40102;50.906;6.972;2023-05-07T09:20:45;2.08;;;1.67;;
54193;SDS011;40102;50.906;6.972;2023-05-07T09:23:10;4.65;;;1.70;;
54193;SDS011;40102;50.906;6.972;2023-05-07T09:25:36;2.15;;;1.88;;
54193;SDS011;40102;50.906;6.972;2023-05-07T09:28:02;3.42;;;1.60;;
54193;SDS011;40102;50.906;6.972;2023-05-07T09:30:32;2.47;;;1.33;;
54193;SDS011;40102;50.906;6.972;2023-05-07T09:35:25;1.80;;;1.30;;
54193;SDS011;40102;50.906;6.972;2023-05-07T09:37:57;3.00;;;1.55;;
54193;SDS011;40102;50.906;6.972;2023-05-07T09:40:28;4.18;;;1.70;;
54193;SDS011;40102;50.906;6.972;2023-05-07T09:42:54;1.58;;;1.30;;
54193;SDS011;40102;50.906;6.972;2023-05-07T09:45:29;1.50;;;1.38;;
54193;SDS011;40102;50.906;6.972;2023-05-07T09:47:55;1.25;;;1.15;;
54193;SDS011;40102;50.906;6.972;2023-05-07T09:50:26;2.60;;;1.58;;
54193;SDS011;40102;50.906;6.972;2023-05-07T09:52:56;1.85;;;1.42;;
54193;SDS011;40102;50.906;6.972;2023-05-07T09:55:22;2.63;;;1.63;;
54193;SDS011;40102;50.906;6.972;2023-05-07T09:57:51;2.42;;;1.45;;
54193;SDS011;40102;50.906;6.972;2023-05-07T10:00:20;2.63;;;1.42;;
54193;SDS011;40102;50.906;6.972;2023-05-07T10:02:51;2.42;;;1.42;;
54193;SDS011;40102;50.906;6.972;2023-05-07T10:05:18;1.55;;;1.45;;
54193;SDS011;40102;50.906;6.972;2023-05-07T10:07:45;2.53;;;1.35;;
54193;SDS011;40102;50.906;6.972;2023-05-07T10:10:11;3.35;;;1.40;;
54193;SDS011;40102;50.906;6.972;2023-05-07T10:12:37;1.90;;;1.48;;
54193;SDS011;40102;50.906;6.972;2023-05-07T10:15:05;2.85;;;1.30;;
54193;SDS011;40102;50.906;6.972;2023-05-07T10:17:34;1.63;;;1.42;;
54193;SDS011;40102;50.906;6.972;2023-05-07T10:20:00;3.40;;;1.65;;
54193;SDS011;40102;50.906;6.972;2023-05-07T10:22:26;7.65;;;1.67;;
54193;SDS011;40102;50.906;6.972;2023-05-07T10:24:53;2.85;;;1.40;;
54193;SDS011;40102;50.906;6.972;2023-05-07T10:29:54;2.75;;;1.60;;
54193;SDS011;40102;50.906;6.972;2023-05-07T10:35:00;1.83;;;1.20;;
54193;SDS011;40102;50.906;6.972;2023-05-07T10:37:28;1.42;;;1.30;;
54193;SDS011;40102;50.906;6.972;2023-05-07T10:39:54;2.47;;;1.50;;
54193;SDS011;40102;50.906;6.972;2023-05-07T10:42:20;2.25;;;1.42;;
54193;SDS011;40102;50.906;6.972;2023-05-07T10:44:45;2.47;;;1.67;;
54193;SDS011;40102;50.906;6.972;2023-05-07T10:47:12;5.68;;;1.40;;
54193;SDS011;40102;50.906;6.972;2023-05-07T10:54:42;2.80;;;1.65;;
54193;SDS011;40102;50.906;6.972;2023-05-07T10:59:53;4.95;;;1.35;;
54193;SDS011;40102;50.906;6.972;2023-05-07T11:02:19;2.35;;;1.35;;
54193;SDS011;40102;50.906;6.972;2023-05-07T11:04:44;3.97;;;1.33;;
54193;SDS011;40102;50.906;6.972;2023-05-07T11:07:21;4.35;;;1.50;;
54193;SDS011;40102;50.906;6.972;2023-05-07T11:15:05;2.38;;;1.30;;
54193;SDS011;40102;50.906;6.972;2023-05-07T11:17:35;3.05;;;1.20;;
54193;SDS011;40102;50.906;6.972;2023-05-07T11:20:17;2.15;;;1.27;;
54193;SDS011;40102;50.906;6.972;2023-05-07T11:22:43;1.20;;;1.02;;
54193;SDS011;40102;50.906;6.972;2023-05-07T11:25:09;1.48;;;1.15;;
54193;SDS011;40102;50.906;6.972;2023-05-07T11:27:34;1.25;;;1.10;;
54193;SDS011;40102;50.906;6.972;2023-05-07T11:30:00;2.58;;;1.42;;
54193;SDS011;40102;50.906;6.972;2023-05-07T11:32:30;1.75;;;1.25;;
54193;SDS011;40102;50.906;6.972;2023-05-07T11:34:57;3.75;;;1.20;;
54193;SDS011;40102;50.906;6.972;2023-05-07T11:37:24;1.88;;;1.10;;
54193;SDS011;40102;50.906;6.972;2023-05-07T11:39:51;3.13;;;1.60;;
54193;SDS011;40102;50.906;6.972;2023-05-07T11:42:29;1.73;;;1.38;;
54193;SDS011;40102;50.906;6.972;2023-05-07T11:44:54;2.33;;;1.42;;
54193;SDS011;40102;50.906;6.972;2023-05-07T11:47:20;1.67;;;1.15;;
54193;SDS011;40102;50.906;6.972;2023-05-07T11:49:47;1.58;;;1.30;;
54193;SDS011;40102;50.906;6.972;2023-05-07T11:52:14;2.50;;;1.30;;
54193;SDS011;40102;50.906;6.972;2023-05-07T11:54:40;1.58;;;1.10;;
54193;SDS011;40102;50.906;6.972;2023-05-07T11:57:05;2.08;;;1.42;;
54193;SDS011;40102;50.906;6.972;2023-05-07T11:59:38;2.13;;;1.40;;
54193;SDS011;40102;50.906;6.972;2023-05-07T12:02:05;1.77;;;1.20;;
54193;SDS011;40102;50.906;6.972;2023-05-07T12:04:31;2.72;;;1.48;;
54193;SDS011;40102;50.906;6.972;2023-05-07T12:06:56;1.60;;;1.10;;
54193;SDS011;40102;50.906;6.972;2023-05-07T12:09:22;1.27;;;1.15;;
54193;SDS011;40102;50.906;6.972;2023-05-07T12:11:47;1.30;;;1.17;;
54193;SDS011;40102;50.906;6.972;2023-05-07T12:14:13;1.75;;;1.10;;
54193;SDS011;40102;50.906;6.972;2023-05-07T12:16:40;1.55;;;1.02;;
54193;SDS011;40102;50.906;6.972;2023-05-07T12:19:06;2.72;;;1.38;;
54193;SDS011;40102;50.906;6.972;2023-05-07T12:21:33;1.20;;;1.10;;
54193;SDS011;40102;50.906;6.972;2023-05-07T12:24:00;1.52;;;1.20;;
54193;SDS011;40102;50.906;6.972;2023-05-07T12:26:26;1.95;;;1.02;;
54193;SDS011;40102;50.906;6.972;2023-05-07T12:28:51;1.60;;;1.08;;
54193;SDS011;40102;50.906;6.972;2023-05-07T12:31:17;1.38;;;1.10;;
54193;SDS011;40102;50.906;6.972;2023-05-07T12:33:42;2.70;;;1.67;;
54193;SDS011;40102;50.906;6.972;2023-05-07T12:36:08;3.92;;;2.30;;
54193;SDS011;40102;50.906;6.972;2023-05-07T12:38:34;6.15;;;3.35;;
54193;SDS011;40102;50.906;6.972;2023-05-07T12:41:01;2.47;;;1.80;;
54193;SDS011;40102;50.906;6.972;2023-05-07T12:43:27;2.03;;;1.52;;
54193;SDS011;40102;50.906;6.972;2023-05-07T12:45:54;1.90;;;1.50;;
54193;SDS011;40102;50.906;6.972;2023-05-07T12:48:21;1.92;;;1.27;;
54193;SDS011;40102;50.906;6.972;2023-05-07T12:50:50;3.05;;;1.38;;
54193;SDS011;40102;50.906;6.972;2023-05-07T12:53:16;3.33;;;1.10;;
54193;SDS011;40102;50.906;6.972;2023-05-07T12:55:45;1.58;;;1.25;;
54193;SDS011;40102;50.906;6.972;2023-05-07T12:58:16;2.92;;;1.15;;
54193;SDS011;40102;50.906;6.972;2023-05-07T13:00:42;1.77;;;1.15;;
54193;SDS011;40102;50.906;6.972;2023-05-07T13:03:08;2.45;;;1.20;;
54193;SDS011;40102;50.906;6.972;2023-05-07T13:05:34;1.65;;;1.30;;
54193;SDS011;40102;50.906;6.972;2023-05-07T13:08:00;1.58;;;1.08;;
54193;SDS011;40102;50.906;6.972;2023-05-07T13:10:25;1.08;;;0.98;;
54193;SDS011;40102;50.906;6.972;2023-05-07T13:12:51;1.50;;;1.20;;
54193;SDS011;40102;50.906;6.972;2023-05-07T13:15:17;1.90;;;1.40;;
54193;SDS011;40102;50.906;6.972;2023-05-07T13:17:43;1.55;;;1.20;;
54193;SDS011;40102;50.906;6.972;2023-05-07T13:20:09;2.10;;;1.20;;
54193;SDS011;40102;50.906;6.972;2023-05-07T13:22:35;2.60;;;1.50;;
54193;SDS011;40102;50.906;6.972;2023-05-07T13:25:00;1.90;;;1.60;;
54193;SDS011;40102;50.906;6.972;2023-05-07T13:27:26;2.03;;;1.58;;
54193;SDS011;40102;50.906;6.972;2023-05-07T13:29:51;1.98;;;1.40;;
54193;SDS011;40102;50.906;6.972;2023-05-07T13:32:16;1.48;;;1.35;;
54193;SDS011;40102;50.906;6.972;2023-05-07T13:34:42;1.75;;;1.48;;
54193;SDS011;40102;50.906;6.972;2023-05-07T13:37:07;3.17;;;1.40;;
54193;SDS011;40102;50.906;6.972;2023-05-07T13:39:33;2.45;;;1.58;;
54193;SDS011;40102;50.906;6.972;2023-05-07T13:41:58;4.30;;;1.88;;
54193;SDS011;40102;50.906;6.972;2023-05-07T13:44:24;2.80;;;1.60;;
54193;SDS011;40102;50.906;6.972;2023-05-07T13:46:49;2.67;;;1.40;;
54193;SDS011;40102;50.906;6.972;2023-05-07T13:49:15;3.40;;;1.52;;
54193;SDS011;40102;50.906;6.972;2023-05-07T13:51:40;2.65;;;1.52;;
54193;SDS011;40102;50.906;6.972;2023-05-07T13:54:05;2.17;;;1.50;;
54193;SDS011;40102;50.906;6.972;2023-05-07T13:56:31;2.47;;;1.55;;
54193;SDS011;40102;50.906;6.972;2023-05-07T13:58:57;3.38;;;1.80;;
54193;SDS011;40102;50.906;6.972;2023-05-07T14:01:23;3.78;;;1.70;;
54193;SDS011;40102;50.906;6.972;2023-05-07T14:03:48;1.52;;;1.40;;
54193;SDS011;40102;50.906;6.972;2023-05-07T14:06:14;4.40;;;1.52;;
54193;SDS011;40102;50.906;6.972;2023-05-07T14:08:39;3.35;;;1.55;;
54193;SDS011;40102;50.906;6.972;2023-05-07T14:11:05;2.53;;;1.73;;
54193;SDS011;40102;50.906;6.972;2023-05-07T14:13:30;2.75;;;1.70;;
54193;SDS011;40102;50.906;6.972;2023-05-07T14:15:56;5.43;;;2.05;;
54193;SDS011;40102;50.906;6.972;2023-05-07T14:18:22;2.63;;;1.60;;
54193;SDS011;40102;50.906;6.972;2023-05-07T14:20:47;2.17;;;1.60;;
54193;SDS011;40102;50.906;6.972;2023-05-07T14:23:13;3.58;;;1.92;;
54193;SDS011;40102;50.906;6.972;2023-05-07T14:25:39;1.63;;;1.50;;
54193;SDS011;40102;50.906;6.972;2023-05-07T14:28:06;2.20;;;1.70;;
54193;SDS011;40102;50.906;6.972;2023-05-07T14:30:31;3.20;;;1.70;;
54193;SDS011;40102;50.906;6.972;2023-05-07T14:32:56;2.70;;;1.60;;
54193;SDS011;40102;50.906;6.972;2023-05-07T14:35:22;4.38;;;1.60;;
54193;SDS011;40102;50.906;6.972;2023-05-07T14:37:47;2.65;;;1.75;;
54193;SDS011;40102;50.906;6.972;2023-05-07T14:40:12;3.63;;;1.45;;
54193;SDS011;40102;50.906;6.972;2023-05-07T14:42:39;2.42;;;1.70;;
54193;SDS011;40102;50.906;6.972;2023-05-07T14:45:05;2.45;;;1.60;;
54193;SDS011;40102;50.906;6.972;2023-05-07T14:47:30;2.13;;;1.33;;
54193;SDS011;40102;50.906;6.972;2023-05-07T14:49:56;2.50;;;1.30;;
54193;SDS011;40102;50.906;6.972;2023-05-07T14:52:22;1.85;;;1.60;;
54193;SDS011;40102;50.906;6.972;2023-05-07T14:54:47;2.80;;;1.67;;
54193;SDS011;40102;50.906;6.972;2023-05-07T14:57:13;2.30;;;1.70;;
54193;SDS011;40102;50.906;6.972;2023-05-07T14:59:40;3.78;;;1.60;;
54193;SDS011;40102;50.906;6.972;2023-05-07T15:02:06;3.50;;;1.52;;